createdAt,value
2022-12-04T00:01:30.432Z,101290.47
2022-12-04T00:04:02.094Z,101278.53
2022-12-04T00:06:30.953Z,101274.38
2022-12-04T00:09:00.548Z,101283.63
2022-12-04T00:11:30.939Z,101289.69
2022-12-04T00:14:06.460Z,101293.63
2022-12-04T00:16:36.070Z,101298.41
2022-12-04T00:19:05.095Z,101292.00
2022-12-04T00:21:34.046Z,101301.13
2022-12-04T00:24:02.804Z,101294.75
2022-12-04T00:26:32.254Z,101296.97
2022-12-04T00:29:02.406Z,101295.09
2022-12-04T00:31:32.058Z,101300.94
2022-12-04T00:34:02.078Z,101304.34
2022-12-04T00:36:31.153Z,101303.50
2022-12-04T00:39:00.829Z,101301.78
2022-12-04T00:41:30.814Z,101307.44
2022-12-04T00:43:59.776Z,101307.72
2022-12-04T00:46:29.904Z,101300.13
2022-12-04T00:49:01.854Z,101297.09
2022-12-04T00:51:30.892Z,101291.69
2022-12-04T00:53:59.567Z,101294.38
2022-12-04T00:56:29.623Z,101293.66
2022-12-04T00:58:59.607Z,101297.59
2022-12-04T01:01:30.495Z,101297.78
2022-12-04T01:03:59.337Z,101303.75
2022-12-04T01:06:30.564Z,101308.03
2022-12-04T01:09:00.217Z,101306.81
2022-12-04T01:11:30.679Z,101292.00
2022-12-04T01:13:59.945Z,101292.72
2022-12-04T01:16:33.054Z,101294.19
2022-12-04T01:19:02.683Z,101298.84
2022-12-04T01:21:31.367Z,101299.66
2022-12-04T01:24:00.093Z,101307.50
2022-12-04T01:26:29.227Z,101301.72
2022-12-04T01:28:58.000Z,101316.34
2022-12-04T01:31:26.444Z,101309.41
2022-12-04T01:33:56.608Z,101312.41
2022-12-04T01:36:26.981Z,101301.88
2022-12-04T01:38:55.785Z,101312.88
2022-12-04T01:41:26.315Z,101303.44
2022-12-04T01:44:07.733Z,101307.22
2022-12-04T01:46:36.488Z,101296.63
2022-12-04T01:49:07.838Z,101295.28
2022-12-04T01:51:38.646Z,101298.16
2022-12-04T01:54:10.833Z,101288.63
2022-12-04T01:56:43.172Z,101297.72
2022-12-04T01:59:13.333Z,101288.16
2022-12-04T02:01:45.803Z,101287.94
2022-12-04T02:04:15.895Z,101292.78
2022-12-04T02:06:44.565Z,101292.69
2022-12-04T02:09:13.305Z,101288.28
2022-12-04T02:11:47.714Z,101281.22
2022-12-04T02:14:23.571Z,101283.91
2022-12-04T02:16:58.394Z,101284.13
2022-12-04T02:19:42.628Z,101270.06
2022-12-04T02:22:16.283Z,101270.41
2022-12-04T02:24:50.322Z,101276.22
2022-12-04T02:27:32.999Z,101271.56
2022-12-04T02:30:06.591Z,101264.72
2022-12-04T02:32:41.115Z,101276.66
2022-12-04T02:35:13.767Z,101268.34
2022-12-04T02:37:45.856Z,101273.75
2022-12-04T02:40:18.945Z,101262.75
2022-12-04T02:42:51.932Z,101275.41
2022-12-04T02:45:26.329Z,101273.88
2022-12-04T02:47:56.373Z,101285.22
2022-12-04T02:50:27.225Z,101268.22
2022-12-04T02:52:57.244Z,101273.81
2022-12-04T02:55:26.141Z,101275.13
2022-12-04T02:57:58.492Z,101288.69
2022-12-04T03:00:29.404Z,101280.13
2022-12-04T03:03:00.179Z,101277.75
2022-12-04T03:05:34.764Z,101262.00
2022-12-04T03:08:08.348Z,101265.56
2022-12-04T03:10:39.967Z,101251.59
2022-12-04T03:13:10.836Z,101260.31
2022-12-04T03:15:43.540Z,101260.06
2022-12-04T03:18:17.201Z,101255.53
2022-12-04T03:20:47.055Z,101259.72
2022-12-04T03:23:19.721Z,101259.84
2022-12-04T03:25:57.325Z,101263.19
2022-12-04T03:28:30.482Z,101260.59
2022-12-04T03:31:04.871Z,101275.81
2022-12-04T03:33:40.309Z,101266.28
2022-12-04T03:36:13.201Z,101263.13
2022-12-04T03:38:45.349Z,101254.19
2022-12-04T03:41:21.007Z,101245.75
2022-12-04T03:43:52.397Z,101249.31
2022-12-04T03:46:28.944Z,101239.78
2022-12-04T03:49:02.622Z,101241.81
2022-12-04T03:51:34.745Z,101235.69
2022-12-04T03:54:05.977Z,101234.63
2022-12-04T03:56:38.054Z,101257.56
2022-12-04T03:59:09.409Z,101255.50
2022-12-04T04:01:42.597Z,101256.09
2022-12-04T04:04:13.657Z,101256.81
2022-12-04T04:06:46.170Z,101258.94
2022-12-04T04:09:20.669Z,101250.22
2022-12-04T04:11:51.361Z,101245.81
2022-12-04T04:14:41.202Z,101245.81
2022-12-04T04:17:36.469Z,101249.66
2022-12-04T04:20:27.101Z,101242.78
2022-12-04T04:23:15.797Z,101245.44
2022-12-04T04:25:45.306Z,101244.22
2022-12-04T04:28:30.994Z,101239.44
2022-12-04T04:31:07.822Z,101238.91
2022-12-04T04:33:46.036Z,101229.03
2022-12-04T04:36:20.084Z,101235.19
2022-12-04T04:38:52.243Z,101241.91
2022-12-04T04:41:23.497Z,101249.00
2022-12-04T04:43:55.620Z,101250.25
2022-12-04T04:46:28.500Z,101253.19
2022-12-04T04:49:01.749Z,101257.31
2022-12-04T04:51:32.066Z,101242.72
2022-12-04T04:54:03.049Z,101246.16
2022-12-04T04:56:32.179Z,101248.44
2022-12-04T04:59:00.832Z,101248.97
2022-12-04T05:01:29.999Z,101251.69
2022-12-04T05:04:00.165Z,101260.16
2022-12-04T05:06:28.734Z,101265.75
2022-12-04T05:08:57.772Z,101256.63
2022-12-04T05:11:26.579Z,101245.16
2022-12-04T05:13:55.371Z,101246.84
2022-12-04T05:16:24.409Z,101263.34
2022-12-04T05:19:16.077Z,101241.16
2022-12-04T05:21:46.248Z,101259.75
2022-12-04T05:24:14.962Z,101265.59
2022-12-04T05:26:43.713Z,101271.84
2022-12-04T05:29:12.352Z,101287.03
2022-12-04T05:31:40.810Z,101270.34
2022-12-04T05:34:09.784Z,101257.19
2022-12-04T05:36:38.606Z,101270.44
2022-12-04T05:39:08.657Z,101261.94
2022-12-04T05:41:37.599Z,101266.50
2022-12-04T05:44:06.439Z,101262.72
2022-12-04T05:46:34.861Z,101263.84
2022-12-04T05:49:03.698Z,101268.88
2022-12-04T05:51:32.573Z,101266.44
2022-12-04T05:54:01.274Z,101269.03
2022-12-04T05:56:31.574Z,101267.28
2022-12-04T05:59:00.426Z,101272.22
2022-12-04T06:01:28.804Z,101273.38
2022-12-04T06:03:57.536Z,101285.22
2022-12-04T06:06:27.869Z,101274.72
2022-12-04T06:08:57.981Z,101260.75
2022-12-04T06:11:28.256Z,101278.44
2022-12-04T06:13:58.583Z,101256.81
2022-12-04T06:16:30.283Z,101266.66
2022-12-04T06:19:00.700Z,101278.78
2022-12-04T06:21:32.687Z,101279.44
2022-12-04T06:24:01.597Z,101279.88
2022-12-04T06:26:30.465Z,101292.91
2022-12-04T06:29:01.519Z,101291.00
2022-12-04T06:31:30.904Z,101288.56
2022-12-04T06:33:59.705Z,101288.41
2022-12-04T06:36:28.502Z,101289.75
2022-12-04T06:38:58.059Z,101288.13
2022-12-04T06:41:27.613Z,101288.28
2022-12-04T06:43:56.341Z,101301.63
2022-12-04T06:46:28.462Z,101303.34
2022-12-04T06:48:58.542Z,101306.53
2022-12-04T06:51:29.767Z,101302.56
2022-12-04T06:53:58.865Z,101303.75
2022-12-04T06:56:29.858Z,101301.31
2022-12-04T06:58:59.877Z,101308.47
2022-12-04T07:01:32.450Z,101303.06
2022-12-04T07:04:04.030Z,101299.09
2022-12-04T07:06:34.646Z,101297.47
2022-12-04T07:09:06.570Z,101289.66
2022-12-04T07:11:35.690Z,101301.94
2022-12-04T07:14:04.708Z,101303.91
2022-12-04T07:16:40.228Z,101304.41
2022-12-04T07:19:09.461Z,101305.50
2022-12-04T07:21:38.230Z,101300.34
2022-12-04T07:24:07.524Z,101296.63
2022-12-04T07:26:36.144Z,101308.94
2022-12-04T07:29:04.839Z,101305.50
2022-12-04T07:31:34.587Z,101310.03
2022-12-04T07:34:03.108Z,101301.50
2022-12-04T07:36:31.840Z,101311.47
2022-12-04T07:39:00.620Z,101312.59
2022-12-04T07:41:29.312Z,101321.88
2022-12-04T07:43:57.961Z,101318.19
2022-12-04T07:46:28.244Z,101313.25
2022-12-04T07:48:59.510Z,101324.28
2022-12-04T07:51:29.407Z,101329.00
2022-12-04T07:54:03.070Z,101322.13
2022-12-04T07:56:32.728Z,101332.97
2022-12-04T07:59:01.862Z,101326.50
2022-12-04T08:01:30.335Z,101324.84
2022-12-04T08:04:01.711Z,101331.63
2022-12-04T08:06:31.080Z,101331.34
2022-12-04T08:09:02.489Z,101324.56
2022-12-04T08:11:34.958Z,101332.19
2022-12-04T08:14:05.478Z,101324.41
2022-12-04T08:16:33.934Z,101330.38
2022-12-04T08:19:04.362Z,101328.22
2022-12-04T08:21:33.760Z,101325.59
2022-12-04T08:24:02.888Z,101318.63
2022-12-04T08:26:32.285Z,101331.09
2022-12-04T08:29:02.628Z,101331.19
2022-12-04T08:31:33.060Z,101327.28
2022-12-04T08:34:05.374Z,101322.69
2022-12-04T08:36:34.617Z,101337.00
2022-12-04T08:39:03.398Z,101324.88
2022-12-04T08:41:32.372Z,101323.88
2022-12-04T08:44:01.159Z,101313.63
2022-12-04T08:46:30.054Z,101322.78
2022-12-04T08:48:59.059Z,101318.34
2022-12-04T08:51:30.838Z,101326.81
2022-12-04T08:54:01.416Z,101320.00
2022-12-04T08:56:31.113Z,101314.81
2022-12-04T08:59:02.762Z,101330.38
2022-12-04T09:01:31.694Z,101326.66
2022-12-04T09:04:01.438Z,101324.63
2022-12-04T09:06:32.168Z,101326.34
2022-12-04T09:09:01.651Z,101326.34
2022-12-04T09:11:33.485Z,101309.53
2022-12-04T09:14:04.450Z,101306.25
2022-12-04T09:16:34.913Z,101309.38
2022-12-04T09:19:07.220Z,101315.50
2022-12-04T09:21:43.176Z,101314.19
2022-12-04T09:24:12.329Z,101316.00
2022-12-04T09:26:42.977Z,101316.66
2022-12-04T09:29:17.548Z,101314.31
2022-12-04T09:31:48.583Z,101304.50
2022-12-04T09:34:19.795Z,101312.72
2022-12-04T09:36:51.959Z,101317.59
2022-12-04T09:39:36.554Z,101312.63
2022-12-04T09:42:30.052Z,101308.91
2022-12-04T09:45:08.715Z,101306.75
2022-12-04T09:47:43.356Z,101309.19
2022-12-04T09:50:18.381Z,101306.28
2022-12-04T09:52:59.587Z,101306.66
2022-12-04T09:55:31.709Z,101300.78
2022-12-04T09:58:13.625Z,101295.03
2022-12-04T10:00:47.020Z,101293.69
2022-12-04T10:03:19.051Z,101282.84
2022-12-04T10:05:54.967Z,101279.50
2022-12-04T10:08:26.928Z,101285.22
2022-12-04T10:11:01.626Z,101278.03
2022-12-04T10:13:45.815Z,101278.66
2022-12-04T10:16:19.216Z,101280.19
2022-12-04T10:18:53.289Z,101292.44
2022-12-04T10:21:45.770Z,101277.72
2022-12-04T10:24:25.257Z,101269.69
2022-12-04T10:26:56.469Z,101280.25
2022-12-04T10:29:28.648Z,101278.38
2022-12-04T10:32:07.913Z,101269.41
2022-12-04T10:34:39.956Z,101271.09
2022-12-04T10:37:14.895Z,101266.38
2022-12-04T10:39:50.882Z,101258.97
2022-12-04T10:42:27.272Z,101260.44
2022-12-04T10:44:56.815Z,101252.63
2022-12-04T10:47:25.948Z,101250.72
2022-12-04T10:50:00.280Z,101254.59
2022-12-04T10:52:29.133Z,101252.88
2022-12-04T10:55:00.667Z,101247.06
2022-12-04T10:57:40.390Z,101239.63
2022-12-04T11:00:30.184Z,101237.16
2022-12-04T11:03:01.627Z,101238.41
2022-12-04T11:05:34.038Z,101235.13
2022-12-04T11:08:05.602Z,101235.72
2022-12-04T11:10:37.435Z,101221.19
2022-12-04T11:13:08.212Z,101227.09
2022-12-04T11:15:37.686Z,101234.06
2022-12-04T11:18:10.653Z,101226.19
2022-12-04T11:20:44.047Z,101227.00
2022-12-04T11:23:16.724Z,101234.56
2022-12-04T11:25:51.236Z,101230.56
2022-12-04T11:28:40.688Z,101221.16
2022-12-04T11:31:11.366Z,101235.16
2022-12-04T11:33:45.943Z,101236.84
2022-12-04T11:36:21.520Z,101230.41
2022-12-04T11:38:50.901Z,101221.41
2022-12-04T11:41:28.843Z,101222.84
2022-12-04T11:44:00.314Z,101228.59
2022-12-04T11:46:32.178Z,101214.06
2022-12-04T11:49:03.410Z,101211.53
2022-12-04T11:51:46.448Z,101218.25
2022-12-04T11:54:23.414Z,101218.81
2022-12-04T11:57:00.186Z,101218.53
2022-12-04T11:59:48.068Z,101216.44
2022-12-04T12:02:42.475Z,101206.09
2022-12-04T12:05:20.791Z,101226.91
2022-12-04T12:08:02.087Z,101224.38
2022-12-04T12:10:38.876Z,101230.06
2022-12-04T12:13:21.859Z,101229.47
2022-12-04T12:15:55.839Z,101213.63
2022-12-04T12:18:47.995Z,101209.31
2022-12-04T12:21:20.401Z,101199.00
2022-12-04T12:24:02.020Z,101192.81
2022-12-04T12:26:36.022Z,101195.66
2022-12-04T12:29:19.086Z,101195.78
2022-12-04T12:32:07.752Z,101194.91
2022-12-04T12:34:38.583Z,101184.78
2022-12-04T12:37:15.931Z,101187.19
2022-12-04T12:39:48.232Z,101181.97
2022-12-04T12:42:19.997Z,101197.03
2022-12-04T12:44:56.535Z,101205.41
2022-12-04T12:47:29.664Z,101203.59
2022-12-04T12:50:01.515Z,101202.31
2022-12-04T12:52:34.279Z,101213.22
2022-12-04T12:55:05.178Z,101212.16
2022-12-04T12:57:37.343Z,101214.56
2022-12-04T13:00:14.611Z,101219.75
2022-12-04T13:02:47.523Z,101219.91
2022-12-04T13:05:20.982Z,101207.06
2022-12-04T13:07:53.638Z,101209.25
2022-12-04T13:10:25.347Z,101223.19
2022-12-04T13:12:56.696Z,101212.16
2022-12-04T13:15:30.917Z,101217.41
2022-12-04T13:18:00.364Z,101202.22
2022-12-04T13:20:32.256Z,101211.03
2022-12-04T13:23:13.210Z,101202.56
2022-12-04T13:25:48.951Z,101204.91
2022-12-04T13:28:27.032Z,101205.47
2022-12-04T13:31:02.363Z,101209.53
2022-12-04T13:34:00.805Z,101226.88
2022-12-04T13:36:45.835Z,101221.44
2022-12-04T13:39:30.617Z,101215.47
2022-12-04T13:42:00.370Z,101213.41
2022-12-04T13:44:30.320Z,101221.34
2022-12-04T13:47:03.311Z,101225.13
2022-12-04T13:49:33.062Z,101230.84
2022-12-04T13:52:03.386Z,101233.03
2022-12-04T13:54:34.126Z,101231.25
2022-12-04T13:57:21.102Z,101237.28
2022-12-04T13:59:50.874Z,101237.34
2022-12-04T14:02:27.822Z,101235.41
2022-12-04T14:04:59.791Z,101226.94
2022-12-04T14:07:31.709Z,101228.38
2022-12-04T14:10:04.845Z,101228.88
2022-12-04T14:12:37.449Z,101232.94
2022-12-04T14:15:08.529Z,101226.06
2022-12-04T14:17:40.106Z,101231.94
2022-12-04T14:20:22.630Z,101241.47
2022-12-04T14:22:51.167Z,101242.06
2022-12-04T14:25:40.551Z,101248.63
2022-12-04T14:28:25.106Z,101246.88
2022-12-04T14:31:16.142Z,101250.75
2022-12-04T14:33:51.634Z,101251.13
2022-12-04T14:36:24.790Z,101239.63
2022-12-04T14:39:01.445Z,101250.47
2022-12-04T14:41:30.342Z,101243.56
2022-12-04T14:43:59.099Z,101244.75
2022-12-04T14:46:38.232Z,101254.44
2022-12-04T14:49:27.270Z,101247.50
2022-12-04T14:52:01.296Z,101251.97
2022-12-04T14:54:34.374Z,101242.50
2022-12-04T14:57:22.924Z,101236.50
2022-12-04T14:59:53.972Z,101251.66
2022-12-04T15:02:24.194Z,101252.31
2022-12-04T15:04:55.222Z,101246.56
2022-12-04T15:07:25.773Z,101259.09
2022-12-04T15:10:13.522Z,101263.22
2022-12-04T15:12:46.433Z,101248.81
2022-12-04T15:15:22.228Z,101253.31
2022-12-04T15:17:58.295Z,101255.25
2022-12-04T15:20:33.329Z,101263.72
2022-12-04T15:23:04.659Z,101256.84
2022-12-04T15:25:36.861Z,101261.81
2022-12-04T15:28:10.614Z,101250.66
2022-12-04T15:30:41.797Z,101245.34
2022-12-04T15:33:19.328Z,101259.84
2022-12-04T15:35:53.556Z,101245.34
2022-12-04T15:38:22.460Z,101241.25
2022-12-04T15:40:55.104Z,101234.88
2022-12-04T15:43:32.192Z,101239.19
2022-12-04T15:46:01.304Z,101243.50
2022-12-04T15:48:31.500Z,101234.53
2022-12-04T15:51:02.254Z,101243.63
2022-12-04T15:53:33.045Z,101242.91
2022-12-04T15:56:04.075Z,101239.03
2022-12-04T15:58:34.073Z,101234.06
2022-12-04T16:01:03.873Z,101233.78
2022-12-04T16:03:34.472Z,101248.34
2022-12-04T16:06:07.506Z,101245.81
2022-12-04T16:08:37.862Z,101237.00
2022-12-04T16:11:08.069Z,101246.63
2022-12-04T16:13:39.311Z,101233.72
2022-12-04T16:16:09.687Z,101234.88
2022-12-04T16:18:39.473Z,101231.16
2022-12-04T16:21:13.636Z,101234.56
2022-12-04T16:23:42.463Z,101236.34
2022-12-04T16:30:23.242Z,101220.03
2022-12-04T16:32:52.089Z,101241.28
2022-12-04T16:35:21.654Z,101239.25
2022-12-04T16:37:51.595Z,101228.75
2022-12-04T16:40:21.581Z,101240.66
2022-12-04T16:42:50.339Z,101238.94
2022-12-04T16:45:24.173Z,101241.06
2022-12-04T16:47:53.090Z,101226.19
2022-12-04T16:50:21.866Z,101226.41
2022-12-04T16:52:51.774Z,101240.69
2022-12-04T16:55:20.559Z,101233.13
2022-12-04T16:57:49.569Z,101221.00
2022-12-04T17:00:19.324Z,101221.66
2022-12-04T17:02:48.538Z,101227.78
2022-12-04T17:05:20.161Z,101210.78
2022-12-04T17:07:48.662Z,101217.16
2022-12-04T17:10:23.712Z,101230.56
2022-12-04T17:12:53.962Z,101229.13
2022-12-04T17:15:23.207Z,101219.16
2022-12-04T17:17:51.988Z,101210.00
2022-12-04T17:20:21.610Z,101205.09
2022-12-04T17:22:50.319Z,101229.81
2022-12-04T17:25:20.536Z,101220.50
2022-12-04T17:27:48.959Z,101216.63
2022-12-04T17:30:17.811Z,101210.09
2022-12-04T17:32:47.765Z,101211.19
2022-12-04T17:35:16.495Z,101206.47
2022-12-04T17:37:44.906Z,101196.47
2022-12-04T17:40:15.459Z,101203.72
2022-12-04T17:42:45.618Z,101197.06
2022-12-04T17:45:14.735Z,101212.22
2022-12-04T17:47:43.547Z,101202.91
2022-12-04T17:50:12.499Z,101207.03
2022-12-04T17:52:40.801Z,101206.28
2022-12-04T17:55:10.233Z,101206.78
2022-12-04T17:57:38.932Z,101205.91
2022-12-04T18:00:10.361Z,101212.22
2022-12-04T18:02:42.655Z,101204.16
2022-12-04T18:05:11.875Z,101210.13
2022-12-04T18:07:40.285Z,101219.81
2022-12-04T18:10:09.478Z,101217.50
2022-12-04T18:12:38.291Z,101219.13
2022-12-04T18:15:09.027Z,101208.47
2022-12-04T18:17:39.741Z,101207.56
2022-12-04T18:20:10.127Z,101221.72
2022-12-04T18:22:38.860Z,101213.72
2022-12-04T18:25:09.154Z,101221.09
2022-12-04T18:27:41.697Z,101212.63
2022-12-04T18:30:12.737Z,101214.53
2022-12-04T18:32:41.605Z,101221.31
2022-12-04T18:35:12.161Z,101225.13
2022-12-04T18:37:40.601Z,101223.00
2022-12-04T18:40:11.034Z,101231.03
2022-12-04T18:42:39.923Z,101221.53
2022-12-04T18:45:10.035Z,101230.19
2022-12-04T18:47:40.113Z,101217.88
2022-12-04T18:50:09.689Z,101224.09
2022-12-04T18:52:38.513Z,101223.22
2022-12-04T18:55:07.577Z,101216.22
2022-12-04T18:57:36.261Z,101226.66
2022-12-04T19:00:06.198Z,101226.25
2022-12-04T19:02:35.224Z,101222.19
2022-12-04T19:05:06.236Z,101227.44
2022-12-04T19:07:34.650Z,101226.06
2022-12-04T19:10:20.778Z,101229.16
2022-12-04T19:12:51.169Z,101231.28
2022-12-04T19:15:20.586Z,101222.75
2022-12-04T19:17:49.622Z,101230.88
2022-12-04T19:20:21.478Z,101227.91
2022-12-04T19:22:50.401Z,101232.00
2022-12-04T19:25:19.060Z,101216.91
2022-12-04T19:27:47.796Z,101220.78
2022-12-04T19:30:16.750Z,101195.91
2022-12-04T19:32:45.622Z,101198.00
2022-12-04T19:35:14.937Z,101189.97
2022-12-04T19:37:49.626Z,101182.69
2022-12-04T19:40:21.284Z,101184.75
2022-12-04T19:42:49.886Z,101192.69
2022-12-04T19:45:18.629Z,101198.09
2022-12-04T19:47:47.404Z,101199.94
2022-12-04T19:50:16.069Z,101196.09
2022-12-04T19:52:45.725Z,101198.56
2022-12-04T19:55:14.407Z,101223.88
2022-12-04T19:57:43.151Z,101229.06
2022-12-04T20:00:12.573Z,101247.84
2022-12-04T20:02:41.602Z,101237.94
2022-12-04T20:05:10.382Z,101244.19
2022-12-04T20:07:38.900Z,101256.44
2022-12-04T20:10:10.849Z,101261.47
2022-12-04T20:12:39.744Z,101263.34
2022-12-04T20:15:09.109Z,101270.13
2022-12-04T20:17:37.838Z,101282.91
2022-12-04T20:20:07.956Z,101264.09
2022-12-04T20:22:37.034Z,101280.63
2022-12-04T20:25:06.358Z,101286.28
2022-12-04T20:27:36.459Z,101267.69
2022-12-04T20:30:06.040Z,101265.03
2022-12-04T20:32:35.738Z,101261.78
2022-12-04T20:35:04.655Z,101272.00
2022-12-04T20:37:32.938Z,101252.69
2022-12-04T20:40:02.450Z,101259.47
2022-12-04T20:42:33.645Z,101255.88
2022-12-04T20:45:04.011Z,101244.22
2022-12-04T20:47:33.417Z,101248.41
2022-12-04T20:50:02.186Z,101257.63
2022-12-04T20:52:30.651Z,101241.16
2022-12-04T20:54:59.421Z,101226.53
2022-12-04T20:57:28.109Z,101218.84
2022-12-04T20:59:57.186Z,101215.91
2022-12-04T21:02:27.590Z,101215.22
2022-12-04T21:04:56.180Z,101218.63
2022-12-04T21:07:25.023Z,101221.88
2022-12-04T21:09:54.171Z,101211.63
2022-12-04T21:12:43.292Z,101202.19
2022-12-04T21:15:29.325Z,101205.59
2022-12-04T21:18:01.593Z,101212.09
2022-12-04T21:20:30.514Z,101203.38
2022-12-04T21:22:59.215Z,101193.91
2022-12-04T21:25:27.894Z,101208.59
2022-12-04T21:27:56.602Z,101212.22
2022-12-04T21:30:25.393Z,101215.75
2022-12-04T21:32:54.087Z,101224.72
2022-12-04T21:35:24.179Z,101223.28
2022-12-04T21:37:52.524Z,101221.31
2022-12-04T21:40:21.382Z,101213.13
2022-12-04T21:42:50.058Z,101217.44
2022-12-04T21:45:19.023Z,101209.41
2022-12-04T21:47:47.759Z,101215.13
2022-12-04T21:50:16.474Z,101209.91
2022-12-04T21:52:46.225Z,101215.31
2022-12-04T21:55:14.987Z,101216.09
2022-12-04T21:57:45.440Z,101206.69
2022-12-04T22:00:15.454Z,101206.78
2022-12-04T22:02:44.161Z,101205.44
2022-12-04T22:05:13.022Z,101196.31
2022-12-04T22:07:41.454Z,101189.25
2022-12-04T22:10:12.117Z,101195.47
2022-12-04T22:12:49.453Z,101201.38
2022-12-04T22:15:19.071Z,101196.31
2022-12-04T22:17:47.944Z,101202.75
2022-12-04T22:20:16.690Z,101201.22
2022-12-04T22:22:45.174Z,101185.31
2022-12-04T22:25:15.485Z,101188.19
2022-12-04T22:27:43.804Z,101182.53
2022-12-04T22:30:14.034Z,101187.06
2022-12-04T22:32:42.667Z,101197.38
2022-12-04T22:35:11.569Z,101188.91
2022-12-04T22:37:44.077Z,101188.59
2022-12-04T22:40:15.643Z,101187.56
2022-12-04T22:42:44.437Z,101176.09
2022-12-04T22:45:13.590Z,101178.88
2022-12-04T22:47:42.241Z,101163.50
2022-12-04T22:50:12.125Z,101170.22
2022-12-04T22:52:40.443Z,101171.94
2022-12-04T22:55:09.592Z,101174.78
2022-12-04T22:57:39.603Z,101171.63
2022-12-04T23:00:10.147Z,101177.25
2022-12-04T23:02:38.897Z,101171.94
2022-12-04T23:05:08.076Z,101172.78
2022-12-04T23:07:37.586Z,101168.56
2022-12-04T23:10:07.799Z,101172.59
2022-12-04T23:12:36.544Z,101173.13
2022-12-04T23:15:07.816Z,101169.91
2022-12-04T23:17:36.622Z,101193.66
2022-12-04T23:20:05.949Z,101164.84
2022-12-04T23:22:34.294Z,101175.41
2022-12-04T23:25:02.945Z,101172.63
2022-12-04T23:27:32.240Z,101178.66
2022-12-04T23:30:00.944Z,101177.81
2022-12-04T23:32:30.907Z,101180.44
2022-12-04T23:34:59.622Z,101166.69
2022-12-04T23:37:27.926Z,101175.16
2022-12-04T23:39:56.941Z,101167.50
2022-12-04T23:42:25.954Z,101161.31
2022-12-04T23:44:54.634Z,101169.53
2022-12-04T23:47:23.403Z,101169.47
2022-12-04T23:49:53.174Z,101163.13
2022-12-04T23:52:21.856Z,101168.72
2022-12-04T23:54:50.693Z,101161.69
2022-12-04T23:57:19.438Z,101155.94
2022-12-04T23:59:48.186Z,101157.59
